AAL2140 KIAH-KDFW
Flight info
| Callsign | AAL2140 |
|---|---|
| Flight time | N/A |
| Altitude | 24000 |
| Route | BLTWY7 CRIED BEREE3 |
| Aircraft | A320/M-VGDW/C |
Departure
| Time | 2026-05-05 22:10 |
|---|---|
| Airport | George Bush Intercontinental Airport (KIAH) |
Arrival
| Time | N/A |
|---|---|
| Airport | Dallas Fort Worth International Airport (KDFW) |
| Time | Latitude | Longitude | Altitude | Speed | Heading |
|---|---|---|---|---|---|
| 2026-05-05 21:42 | 29.98531 | -95.35130 | 107 ft | 0 kts | 360° |
| 2026-05-05 22:00 | 29.98507 | -95.35130 | 106 ft | 4 kts | 360° |
| 2026-05-05 22:00 | 29.98486 | -95.35130 | 105 ft | 4 kts | 360° |
| 2026-05-05 22:01 | 29.98462 | -95.35130 | 106 ft | 1 kts | 360° |
| 2026-05-05 22:07 | 29.98469 | -95.35133 | 106 ft | 5 kts | 337° |
| 2026-05-05 22:07 | 29.98479 | -95.35173 | 107 ft | 5 kts | 278° |
| 2026-05-05 22:07 | 29.98485 | -95.35218 | 106 ft | 9 kts | 279° |
| 2026-05-05 22:07 | 29.98512 | -95.35282 | 107 ft | 8 kts | 320° |
| 2026-05-05 22:08 | 29.98570 | -95.35319 | 107 ft | 16 kts | 333° |
| 2026-05-05 22:08 | 29.98714 | -95.35407 | 107 ft | 27 kts | 333° |
| 2026-05-05 22:08 | 29.98875 | -95.35516 | 107 ft | 24 kts | 308° |
| 2026-05-05 22:08 | 29.98834 | -95.35663 | 107 ft | 19 kts | 241° |
| 2026-05-05 22:09 | 29.98791 | -95.35754 | 109 ft | 10 kts | 232° |
| 2026-05-05 22:09 | 29.98742 | -95.35759 | 109 ft | 7 kts | 149° |
| 2026-05-05 22:09 | 29.98607 | -95.35678 | 108 ft | 54 kts | 153° |
| 2026-05-05 22:09 | 29.98070 | -95.35348 | 107 ft | 118 kts | 152° |
| 2026-05-05 22:10 | 29.97194 | -95.34810 | 119 ft | 164 kts | 153° |
| 2026-05-05 22:10 | 29.96180 | -95.34179 | 589 ft | 166 kts | 152° |
| 2026-05-05 22:10 | 29.95154 | -95.33549 | 1232 ft | 168 kts | 155° |
| 2026-05-05 22:10 | 29.94014 | -95.33295 | 1804 ft | 172 kts | 189° |
| 2026-05-05 22:11 | 29.92953 | -95.33898 | 2384 ft | 174 kts | 227° |
| 2026-05-05 22:11 | 29.92403 | -95.35134 | 2992 ft | 175 kts | 261° |
| 2026-05-05 22:11 | 29.92546 | -95.36494 | 3622 ft | 172 kts | 296° |
| 2026-05-05 22:11 | 29.93312 | -95.37490 | 4241 ft | 169 kts | 330° |
| 2026-05-05 22:12 | 29.94433 | -95.37847 | 4790 ft | 169 kts | 355° |
| 2026-05-05 22:12 | 29.95636 | -95.37971 | 5202 ft | 179 kts | 354° |
| 2026-05-05 22:12 | 29.96921 | -95.38110 | 5566 ft | 194 kts | 354° |
| 2026-05-05 22:12 | 29.98328 | -95.38266 | 5910 ft | 212 kts | 354° |
| 2026-05-05 22:13 | 29.99881 | -95.38442 | 6150 ft | 238 kts | 354° |
| 2026-05-05 22:13 | 30.01012 | -95.38570 | 6308 ft | 257 kts | 354° |
| 2026-05-05 22:13 | 30.02866 | -95.38778 | 6540 ft | 272 kts | 354° |